Provo Municipal Airport
KPVU : rendu visible

Aérodrome :











RETROUVEZ-NOUS SUR...

 
LOGIN :

S'inscrire | Disclaimer

   EN    FR    IT 

 









Légende :    VFR   VFR Marginal   IFR   IFR Intensif   IFR Très Intensif
Visi : 
Plafond : 
>= 8 km
>= 3000ft
5 à 8 km
1000 à 3000 ft
1500m à 5 km
500 à 1000 ft
800 à 1500m
200 à 500 ft
< 800m
< 200 ft
Symboles :   Orages  Brouillard  Fortes neiges  Fortes précipitations  Vent > 20 kt






- Altitude de l'aérodrome : 4497 ft


KPVU - Provo Municipal

DERNIER METAR :
  • 241156Z AUTO 32013KT 10SM OVC085 02/M10 A3021 RMK AO2 PK WND 33027/1106 SLP229 60000 T00171100 10061 20006 51048 FZRANO

METARs EXPIRÉS :
  • 241056Z AUTO 34020G30KT 10SM OVC080 02/M07 A3019 RMK AO2 PK WND 34043/1023 SLP220 T00171067 FZRANO
  • 240956Z AUTO 33032G42KT 10SM BKN095 OVC110 02/M04 A3015 RMK AO2 PK WND 34042/0953 RAB13E33 SLP205 P0000 T00221044 FZRANO

TAF KPVU
Valide du 24 à 12h jusqu'au 25 à 12h UTC


241120Z 2412/2512 30015G25KT P6SM VCSH SCT030 BKN060
FM241400 30013KT P6SM SCT120



MET'MAP, la Météo Aéronautique d'un coup d'oeil ! - Copyright ORBIFLY Décembre 2007 - Disclaimer

ORBIFLY MET'MAP TEAM :

Programmation & Développement : Alexandra Zaïnal
Sur une idée originale de : Baudouin d'Aumeries
Assistance à la programmation : Marc-Olivier Méhu
Soutien technique & logistique : Manuel Goepfert

Contact : metmap@orbifly.com




SOURCES & CREDITS :

   NOAA       Earth
Advisory